sensor_id;sensor_type;location;lat;lon;timestamp;P1;durP1;ratioP1;P2;durP2;ratioP2
54845;SDS011;53889;50.084;8.646;2022-09-01T00:00:23;4.00;;;1.83;;
54845;SDS011;53889;50.084;8.646;2022-09-01T00:02:53;3.10;;;1.70;;
54845;SDS011;53889;50.084;8.646;2022-09-01T00:05:20;3.67;;;1.88;;
54845;SDS011;53889;50.084;8.646;2022-09-01T00:07:47;3.10;;;1.70;;
54845;SDS011;53889;50.084;8.646;2022-09-01T00:10:14;3.38;;;1.70;;
54845;SDS011;53889;50.084;8.646;2022-09-01T00:12:41;2.70;;;1.58;;
54845;SDS011;53889;50.084;8.646;2022-09-01T00:15:11;3.30;;;1.90;;
54845;SDS011;53889;50.084;8.646;2022-09-01T00:17:38;3.65;;;1.80;;
54845;SDS011;53889;50.084;8.646;2022-09-01T00:20:06;3.05;;;1.80;;
54845;SDS011;53889;50.084;8.646;2022-09-01T00:22:34;4.25;;;1.92;;
54845;SDS011;53889;50.084;8.646;2022-09-01T00:25:02;2.92;;;1.65;;
54845;SDS011;53889;50.084;8.646;2022-09-01T00:27:32;3.25;;;1.65;;
54845;SDS011;53889;50.084;8.646;2022-09-01T00:29:58;3.78;;;1.70;;
54845;SDS011;53889;50.084;8.646;2022-09-01T00:32:26;3.67;;;1.70;;
54845;SDS011;53889;50.084;8.646;2022-09-01T00:34:54;2.67;;;1.70;;
54845;SDS011;53889;50.084;8.646;2022-09-01T00:37:20;4.50;;;1.67;;
54845;SDS011;53889;50.084;8.646;2022-09-01T00:39:47;2.70;;;1.67;;
54845;SDS011;53889;50.084;8.646;2022-09-01T00:42:14;3.83;;;1.85;;
54845;SDS011;53889;50.084;8.646;2022-09-01T00:44:40;4.75;;;1.90;;
54845;SDS011;53889;50.084;8.646;2022-09-01T00:47:08;4.47;;;1.50;;
54845;SDS011;53889;50.084;8.646;2022-09-01T00:49:37;2.95;;;1.55;;
54845;SDS011;53889;50.084;8.646;2022-09-01T00:52:06;4.35;;;1.77;;
54845;SDS011;53889;50.084;8.646;2022-09-01T00:54:36;2.28;;;1.50;;
54845;SDS011;53889;50.084;8.646;2022-09-01T00:57:06;3.75;;;1.80;;
54845;SDS011;53889;50.084;8.646;2022-09-01T00:59:36;3.85;;;1.60;;
54845;SDS011;53889;50.084;8.646;2022-09-01T01:02:08;2.67;;;1.50;;
54845;SDS011;53889;50.084;8.646;2022-09-01T01:04:36;4.05;;;1.60;;
54845;SDS011;53889;50.084;8.646;2022-09-01T01:07:05;3.13;;;1.40;;
54845;SDS011;53889;50.084;8.646;2022-09-01T01:09:33;3.40;;;1.55;;
54845;SDS011;53889;50.084;8.646;2022-09-01T01:12:03;3.03;;;1.60;;
54845;SDS011;53889;50.084;8.646;2022-09-01T01:14:33;3.72;;;1.75;;
54845;SDS011;53889;50.084;8.646;2022-09-01T01:17:01;4.03;;;1.60;;
54845;SDS011;53889;50.084;8.646;2022-09-01T01:19:31;2.55;;;1.48;;
54845;SDS011;53889;50.084;8.646;2022-09-01T01:22:25;5.07;;;1.83;;
54845;SDS011;53889;50.084;8.646;2022-09-01T01:25:16;4.13;;;1.70;;
54845;SDS011;53889;50.084;8.646;2022-09-01T01:27:46;3.80;;;1.70;;
54845;SDS011;53889;50.084;8.646;2022-09-01T01:30:14;4.78;;;1.70;;
54845;SDS011;53889;50.084;8.646;2022-09-01T01:32:42;4.32;;;1.67;;
54845;SDS011;53889;50.084;8.646;2022-09-01T01:35:10;4.50;;;1.70;;
54845;SDS011;53889;50.084;8.646;2022-09-01T01:37:40;2.53;;;1.70;;
54845;SDS011;53889;50.084;8.646;2022-09-01T01:40:11;4.07;;;1.70;;
54845;SDS011;53889;50.084;8.646;2022-09-01T01:42:42;3.10;;;1.60;;
54845;SDS011;53889;50.084;8.646;2022-09-01T01:45:10;3.72;;;1.83;;
54845;SDS011;53889;50.084;8.646;2022-09-01T01:47:39;5.32;;;1.85;;
54845;SDS011;53889;50.084;8.646;2022-09-01T01:50:07;4.35;;;1.70;;
54845;SDS011;53889;50.084;8.646;2022-09-01T01:52:35;4.43;;;1.70;;
54845;SDS011;53889;50.084;8.646;2022-09-01T01:55:02;5.50;;;1.67;;
54845;SDS011;53889;50.084;8.646;2022-09-01T01:57:34;3.30;;;1.58;;
54845;SDS011;53889;50.084;8.646;2022-09-01T02:00:03;4.78;;;1.70;;
54845;SDS011;53889;50.084;8.646;2022-09-01T02:02:37;3.35;;;1.55;;
54845;SDS011;53889;50.084;8.646;2022-09-01T02:05:04;3.05;;;1.50;;
54845;SDS011;53889;50.084;8.646;2022-09-01T02:07:32;2.75;;;1.60;;
54845;SDS011;53889;50.084;8.646;2022-09-01T02:09:59;4.18;;;1.60;;
54845;SDS011;53889;50.084;8.646;2022-09-01T02:12:26;2.75;;;1.60;;
54845;SDS011;53889;50.084;8.646;2022-09-01T02:14:52;2.80;;;1.50;;
54845;SDS011;53889;50.084;8.646;2022-09-01T02:17:21;4.65;;;2.15;;
54845;SDS011;53889;50.084;8.646;2022-09-01T02:19:51;3.83;;;1.77;;
54845;SDS011;53889;50.084;8.646;2022-09-01T02:22:21;3.03;;;1.67;;
54845;SDS011;53889;50.084;8.646;2022-09-01T02:24:48;3.85;;;1.52;;
54845;SDS011;53889;50.084;8.646;2022-09-01T02:27:17;4.03;;;1.60;;
54845;SDS011;53889;50.084;8.646;2022-09-01T02:29:47;4.85;;;1.70;;
54845;SDS011;53889;50.084;8.646;2022-09-01T02:32:20;2.42;;;1.70;;
54845;SDS011;53889;50.084;8.646;2022-09-01T02:34:47;2.97;;;1.63;;
54845;SDS011;53889;50.084;8.646;2022-09-01T02:37:18;2.83;;;1.60;;
54845;SDS011;53889;50.084;8.646;2022-09-01T02:39:49;3.25;;;1.60;;
54845;SDS011;53889;50.084;8.646;2022-09-01T02:42:17;3.47;;;1.77;;
54845;SDS011;53889;50.084;8.646;2022-09-01T02:44:52;5.15;;;1.90;;
54845;SDS011;53889;50.084;8.646;2022-09-01T02:47:21;6.25;;;2.05;;
54845;SDS011;53889;50.084;8.646;2022-09-01T02:49:52;3.35;;;1.90;;
54845;SDS011;53889;50.084;8.646;2022-09-01T02:52:19;4.63;;;2.10;;
54845;SDS011;53889;50.084;8.646;2022-09-01T02:54:46;3.47;;;1.83;;
54845;SDS011;53889;50.084;8.646;2022-09-01T02:57:14;3.67;;;2.10;;
54845;SDS011;53889;50.084;8.646;2022-09-01T02:59:41;5.40;;;2.20;;
54845;SDS011;53889;50.084;8.646;2022-09-01T03:02:08;5.53;;;2.53;;
54845;SDS011;53889;50.084;8.646;2022-09-01T03:04:36;4.10;;;2.20;;
54845;SDS011;53889;50.084;8.646;2022-09-01T03:07:04;3.88;;;2.17;;
54845;SDS011;53889;50.084;8.646;2022-09-01T03:09:32;3.50;;;2.22;;
54845;SDS011;53889;50.084;8.646;2022-09-01T03:11:59;5.18;;;2.75;;
54845;SDS011;53889;50.084;8.646;2022-09-01T03:14:26;4.25;;;2.20;;
54845;SDS011;53889;50.084;8.646;2022-09-01T03:16:54;4.95;;;2.30;;
54845;SDS011;53889;50.084;8.646;2022-09-01T03:19:21;5.43;;;2.30;;
54845;SDS011;53889;50.084;8.646;2022-09-01T03:21:49;3.95;;;2.22;;
54845;SDS011;53889;50.084;8.646;2022-09-01T03:24:20;3.55;;;2.20;;
54845;SDS011;53889;50.084;8.646;2022-09-01T03:26:47;4.28;;;2.20;;
54845;SDS011;53889;50.084;8.646;2022-09-01T03:29:16;4.55;;;2.25;;
54845;SDS011;53889;50.084;8.646;2022-09-01T03:31:43;2.85;;;1.90;;
54845;SDS011;53889;50.084;8.646;2022-09-01T03:34:10;3.10;;;2.17;;
54845;SDS011;53889;50.084;8.646;2022-09-01T03:36:43;3.55;;;2.10;;
54845;SDS011;53889;50.084;8.646;2022-09-01T03:39:17;3.97;;;1.92;;
54845;SDS011;53889;50.084;8.646;2022-09-01T03:41:44;4.63;;;2.15;;
54845;SDS011;53889;50.084;8.646;2022-09-01T03:44:11;3.13;;;1.80;;
54845;SDS011;53889;50.084;8.646;2022-09-01T03:46:40;3.92;;;2.03;;
54845;SDS011;53889;50.084;8.646;2022-09-01T03:49:08;3.75;;;1.80;;
54845;SDS011;53889;50.084;8.646;2022-09-01T03:51:37;3.20;;;1.63;;
54845;SDS011;53889;50.084;8.646;2022-09-01T03:54:05;10.23;;;1.80;;
54845;SDS011;53889;50.084;8.646;2022-09-01T03:56:33;3.25;;;1.80;;
54845;SDS011;53889;50.084;8.646;2022-09-01T03:59:00;4.63;;;1.92;;
54845;SDS011;53889;50.084;8.646;2022-09-01T04:01:28;3.10;;;1.80;;
54845;SDS011;53889;50.084;8.646;2022-09-01T04:03:57;2.60;;;1.77;;
54845;SDS011;53889;50.084;8.646;2022-09-01T04:06:29;3.40;;;1.67;;
54845;SDS011;53889;50.084;8.646;2022-09-01T04:08:56;4.38;;;2.00;;
54845;SDS011;53889;50.084;8.646;2022-09-01T04:11:27;3.45;;;1.60;;
54845;SDS011;53889;50.084;8.646;2022-09-01T04:13:56;3.40;;;1.90;;
54845;SDS011;53889;50.084;8.646;2022-09-01T04:16:24;4.05;;;2.00;;
54845;SDS011;53889;50.084;8.646;2022-09-01T04:21:44;4.65;;;2.08;;
54845;SDS011;53889;50.084;8.646;2022-09-01T04:24:14;3.08;;;1.90;;
54845;SDS011;53889;50.084;8.646;2022-09-01T04:26:43;3.58;;;1.80;;
54845;SDS011;53889;50.084;8.646;2022-09-01T04:29:14;3.78;;;1.80;;
54845;SDS011;53889;50.084;8.646;2022-09-01T04:31:43;3.30;;;1.70;;
54845;SDS011;53889;50.084;8.646;2022-09-01T04:34:17;4.70;;;2.10;;
54845;SDS011;53889;50.084;8.646;2022-09-01T04:36:44;4.05;;;1.77;;
54845;SDS011;53889;50.084;8.646;2022-09-01T04:39:11;3.67;;;1.90;;
54845;SDS011;53889;50.084;8.646;2022-09-01T04:41:39;4.00;;;2.05;;
54845;SDS011;53889;50.084;8.646;2022-09-01T04:44:08;5.50;;;1.83;;
54845;SDS011;53889;50.084;8.646;2022-09-01T04:46:40;4.30;;;1.98;;
54845;SDS011;53889;50.084;8.646;2022-09-01T04:49:10;3.25;;;1.90;;
54845;SDS011;53889;50.084;8.646;2022-09-01T04:51:44;4.45;;;1.83;;
54845;SDS011;53889;50.084;8.646;2022-09-01T04:54:12;4.25;;;2.00;;
54845;SDS011;53889;50.084;8.646;2022-09-01T04:56:43;5.03;;;2.00;;
54845;SDS011;53889;50.084;8.646;2022-09-01T04:59:14;4.65;;;1.70;;
54845;SDS011;53889;50.084;8.646;2022-09-01T05:01:47;3.60;;;1.73;;
54845;SDS011;53889;50.084;8.646;2022-09-01T05:04:16;5.15;;;1.67;;
54845;SDS011;53889;50.084;8.646;2022-09-01T05:06:46;3.13;;;1.70;;
54845;SDS011;53889;50.084;8.646;2022-09-01T05:09:15;4.38;;;2.00;;
54845;SDS011;53889;50.084;8.646;2022-09-01T05:12:03;3.65;;;1.70;;
54845;SDS011;53889;50.084;8.646;2022-09-01T05:14:37;4.75;;;1.80;;
54845;SDS011;53889;50.084;8.646;2022-09-01T05:17:08;4.82;;;1.80;;
54845;SDS011;53889;50.084;8.646;2022-09-01T05:19:36;3.42;;;2.30;;
54845;SDS011;53889;50.084;8.646;2022-09-01T05:22:03;5.35;;;1.90;;
54845;SDS011;53889;50.084;8.646;2022-09-01T05:24:31;5.22;;;1.80;;
54845;SDS011;53889;50.084;8.646;2022-09-01T05:27:03;5.93;;;2.10;;
54845;SDS011;53889;50.084;8.646;2022-09-01T05:29:33;6.43;;;2.30;;
54845;SDS011;53889;50.084;8.646;2022-09-01T05:32:03;5.15;;;2.13;;
54845;SDS011;53889;50.084;8.646;2022-09-01T05:34:36;5.00;;;2.80;;
54845;SDS011;53889;50.084;8.646;2022-09-01T05:37:04;4.97;;;1.60;;
54845;SDS011;53889;50.084;8.646;2022-09-01T05:39:36;3.60;;;1.98;;
54845;SDS011;53889;50.084;8.646;2022-09-01T05:42:03;2.95;;;1.60;;
54845;SDS011;53889;50.084;8.646;2022-09-01T05:44:33;3.17;;;1.70;;
54845;SDS011;53889;50.084;8.646;2022-09-01T05:47:00;2.17;;;1.50;;
54845;SDS011;53889;50.084;8.646;2022-09-01T05:49:29;4.20;;;1.80;;
54845;SDS011;53889;50.084;8.646;2022-09-01T05:51:58;4.55;;;1.58;;
54845;SDS011;53889;50.084;8.646;2022-09-01T05:54:28;2.20;;;1.40;;
54845;SDS011;53889;50.084;8.646;2022-09-01T05:56:56;4.28;;;1.88;;
54845;SDS011;53889;50.084;8.646;2022-09-01T05:59:26;3.13;;;1.40;;
54845;SDS011;53889;50.084;8.646;2022-09-01T06:02:02;3.55;;;1.70;;
54845;SDS011;53889;50.084;8.646;2022-09-01T06:04:32;2.35;;;1.48;;
54845;SDS011;53889;50.084;8.646;2022-09-01T06:07:02;4.78;;;1.77;;
54845;SDS011;53889;50.084;8.646;2022-09-01T06:09:31;5.90;;;1.83;;
54845;SDS011;53889;50.084;8.646;2022-09-01T06:11:59;6.78;;;1.98;;
54845;SDS011;53889;50.084;8.646;2022-09-01T06:14:27;5.63;;;1.67;;
54845;SDS011;53889;50.084;8.646;2022-09-01T06:16:53;3.92;;;1.60;;
54845;SDS011;53889;50.084;8.646;2022-09-01T06:19:20;2.55;;;1.40;;
54845;SDS011;53889;50.084;8.646;2022-09-01T06:21:47;3.22;;;1.40;;
54845;SDS011;53889;50.084;8.646;2022-09-01T06:24:15;5.38;;;1.70;;
54845;SDS011;53889;50.084;8.646;2022-09-01T06:26:42;4.70;;;1.88;;
54845;SDS011;53889;50.084;8.646;2022-09-01T06:29:10;6.10;;;1.80;;
54845;SDS011;53889;50.084;8.646;2022-09-01T06:31:44;6.50;;;2.20;;
54845;SDS011;53889;50.084;8.646;2022-09-01T06:34:17;3.72;;;1.60;;
54845;SDS011;53889;50.084;8.646;2022-09-01T06:36:45;3.53;;;1.60;;
54845;SDS011;53889;50.084;8.646;2022-09-01T06:39:17;3.00;;;1.50;;
54845;SDS011;53889;50.084;8.646;2022-09-01T06:41:47;5.75;;;1.63;;
54845;SDS011;53889;50.084;8.646;2022-09-01T06:44:17;3.38;;;1.58;;
54845;SDS011;53889;50.084;8.646;2022-09-01T06:46:50;3.83;;;1.42;;
54845;SDS011;53889;50.084;8.646;2022-09-01T06:49:17;2.80;;;1.50;;
54845;SDS011;53889;50.084;8.646;2022-09-01T06:51:45;3.50;;;1.70;;
54845;SDS011;53889;50.084;8.646;2022-09-01T06:54:14;3.58;;;1.70;;
54845;SDS011;53889;50.084;8.646;2022-09-01T06:56:45;4.40;;;1.70;;
54845;SDS011;53889;50.084;8.646;2022-09-01T06:59:11;4.18;;;2.78;;
54845;SDS011;53889;50.084;8.646;2022-09-01T07:01:41;4.82;;;1.85;;
54845;SDS011;53889;50.084;8.646;2022-09-01T07:04:08;4.18;;;2.00;;
54845;SDS011;53889;50.084;8.646;2022-09-01T07:06:38;5.97;;;1.98;;
54845;SDS011;53889;50.084;8.646;2022-09-01T07:09:15;5.70;;;1.80;;
54845;SDS011;53889;50.084;8.646;2022-09-01T07:11:55;3.60;;;1.50;;
54845;SDS011;53889;50.084;8.646;2022-09-01T07:14:24;4.80;;;1.98;;
54845;SDS011;53889;50.084;8.646;2022-09-01T07:16:51;4.97;;;2.10;;
54845;SDS011;53889;50.084;8.646;2022-09-01T07:19:17;8.07;;;1.83;;
54845;SDS011;53889;50.084;8.646;2022-09-01T07:21:50;4.88;;;1.50;;
54845;SDS011;53889;50.084;8.646;2022-09-01T07:24:18;4.00;;;1.50;;
54845;SDS011;53889;50.084;8.646;2022-09-01T07:27:12;5.72;;;1.55;;
54845;SDS011;53889;50.084;8.646;2022-09-01T07:29:39;4.40;;;1.52;;
54845;SDS011;53889;50.084;8.646;2022-09-01T07:32:06;4.05;;;1.50;;
54845;SDS011;53889;50.084;8.646;2022-09-01T07:34:35;4.10;;;1.58;;
54845;SDS011;53889;50.084;8.646;2022-09-01T07:37:04;5.70;;;1.50;;
54845;SDS011;53889;50.084;8.646;2022-09-01T07:39:31;3.42;;;1.65;;
54845;SDS011;53889;50.084;8.646;2022-09-01T07:42:19;3.53;;;1.30;;
54845;SDS011;53889;50.084;8.646;2022-09-01T07:45:24;3.17;;;1.40;;
54845;SDS011;53889;50.084;8.646;2022-09-01T07:47:55;5.60;;;1.60;;
54845;SDS011;53889;50.084;8.646;2022-09-01T07:50:24;3.38;;;1.75;;
54845;SDS011;53889;50.084;8.646;2022-09-01T07:52:53;4.25;;;1.40;;
54845;SDS011;53889;50.084;8.646;2022-09-01T07:55:20;5.68;;;1.75;;
54845;SDS011;53889;50.084;8.646;2022-09-01T07:57:48;5.05;;;1.50;;
54845;SDS011;53889;50.084;8.646;2022-09-01T08:00:16;4.05;;;1.30;;
54845;SDS011;53889;50.084;8.646;2022-09-01T08:02:48;3.83;;;1.35;;
54845;SDS011;53889;50.084;8.646;2022-09-01T08:05:17;2.20;;;1.10;;
54845;SDS011;53889;50.084;8.646;2022-09-01T08:07:50;2.13;;;1.23;;
54845;SDS011;53889;50.084;8.646;2022-09-01T08:10:19;2.40;;;1.10;;
54845;SDS011;53889;50.084;8.646;2022-09-01T08:12:49;3.22;;;1.30;;
54845;SDS011;53889;50.084;8.646;2022-09-01T08:15:16;3.95;;;1.35;;
54845;SDS011;53889;50.084;8.646;2022-09-01T08:17:44;6.43;;;1.35;;
54845;SDS011;53889;50.084;8.646;2022-09-01T08:20:12;2.65;;;1.38;;
54845;SDS011;53889;50.084;8.646;2022-09-01T08:23:07;2.50;;;1.20;;
54845;SDS011;53889;50.084;8.646;2022-09-01T08:25:36;4.72;;;1.70;;
54845;SDS011;53889;50.084;8.646;2022-09-01T08:28:05;3.50;;;1.30;;
54845;SDS011;53889;50.084;8.646;2022-09-01T08:30:32;5.60;;;1.55;;
54845;SDS011;53889;50.084;8.646;2022-09-01T08:32:59;5.93;;;1.30;;
54845;SDS011;53889;50.084;8.646;2022-09-01T08:35:27;3.53;;;1.30;;
54845;SDS011;53889;50.084;8.646;2022-09-01T08:37:55;3.47;;;1.38;;
54845;SDS011;53889;50.084;8.646;2022-09-01T08:40:24;4.28;;;1.25;;
54845;SDS011;53889;50.084;8.646;2022-09-01T08:42:53;4.07;;;1.42;;
54845;SDS011;53889;50.084;8.646;2022-09-01T08:45:30;4.18;;;1.30;;
54845;SDS011;53889;50.084;8.646;2022-09-01T08:48:05;5.80;;;1.38;;
54845;SDS011;53889;50.084;8.646;2022-09-01T08:50:37;3.38;;;1.83;;
54845;SDS011;53889;50.084;8.646;2022-09-01T08:53:21;3.03;;;1.10;;
54845;SDS011;53889;50.084;8.646;2022-09-01T08:55:54;4.88;;;1.40;;
54845;SDS011;53889;50.084;8.646;2022-09-01T08:58:21;3.55;;;1.20;;
54845;SDS011;53889;50.084;8.646;2022-09-01T09:01:28;2.83;;;1.10;;
54845;SDS011;53889;50.084;8.646;2022-09-01T09:04:03;2.95;;;1.30;;
54845;SDS011;53889;50.084;8.646;2022-09-01T09:06:41;4.45;;;1.10;;
54845;SDS011;53889;50.084;8.646;2022-09-01T09:09:15;2.85;;;1.50;;
54845;SDS011;53889;50.084;8.646;2022-09-01T09:14:41;2.38;;;1.30;;
54845;SDS011;53889;50.084;8.646;2022-09-01T09:17:28;4.47;;;1.40;;
54845;SDS011;53889;50.084;8.646;2022-09-01T09:19:58;2.63;;;1.10;;
54845;SDS011;53889;50.084;8.646;2022-09-01T09:22:26;2.47;;;1.17;;
54845;SDS011;53889;50.084;8.646;2022-09-01T09:24:53;1.90;;;0.98;;
54845;SDS011;53889;50.084;8.646;2022-09-01T09:27:25;2.47;;;1.10;;
54845;SDS011;53889;50.084;8.646;2022-09-01T09:29:54;3.45;;;1.00;;
54845;SDS011;53889;50.084;8.646;2022-09-01T09:32:23;2.50;;;1.30;;
54845;SDS011;53889;50.084;8.646;2022-09-01T09:35:17;2.17;;;1.10;;
54845;SDS011;53889;50.084;8.646;2022-09-01T09:37:47;3.17;;;1.10;;
54845;SDS011;53889;50.084;8.646;2022-09-01T09:40:15;4.50;;;1.30;;
54845;SDS011;53889;50.084;8.646;2022-09-01T09:42:57;3.35;;;1.30;;
54845;SDS011;53889;50.084;8.646;2022-09-01T09:45:31;3.28;;;1.10;;
54845;SDS011;53889;50.084;8.646;2022-09-01T09:47:59;4.13;;;1.45;;
54845;SDS011;53889;50.084;8.646;2022-09-01T09:50:33;4.78;;;1.23;;
54845;SDS011;53889;50.084;8.646;2022-09-01T09:53:09;3.17;;;1.23;;
54845;SDS011;53889;50.084;8.646;2022-09-01T09:55:51;2.30;;;1.08;;
54845;SDS011;53889;50.084;8.646;2022-09-01T09:58:21;2.40;;;1.30;;
54845;SDS011;53889;50.084;8.646;2022-09-01T10:00:57;2.85;;;1.15;;
54845;SDS011;53889;50.084;8.646;2022-09-01T10:03:33;3.97;;;1.40;;
54845;SDS011;53889;50.084;8.646;2022-09-01T10:06:09;4.43;;;1.00;;
54845;SDS011;53889;50.084;8.646;2022-09-01T10:08:38;3.05;;;1.10;;
54845;SDS011;53889;50.084;8.646;2022-09-01T10:11:10;4.53;;;1.10;;
54845;SDS011;53889;50.084;8.646;2022-09-01T10:13:50;3.13;;;1.00;;
54845;SDS011;53889;50.084;8.646;2022-09-01T10:16:20;4.35;;;1.20;;
54845;SDS011;53889;50.084;8.646;2022-09-01T10:18:50;5.13;;;1.20;;
54845;SDS011;53889;50.084;8.646;2022-09-01T10:21:26;4.40;;;1.20;;
54845;SDS011;53889;50.084;8.646;2022-09-01T10:23:58;3.47;;;0.93;;
54845;SDS011;53889;50.084;8.646;2022-09-01T10:26:26;2.15;;;1.00;;
54845;SDS011;53889;50.084;8.646;2022-09-01T10:28:58;2.13;;;0.98;;
54845;SDS011;53889;50.084;8.646;2022-09-01T10:31:30;1.80;;;1.10;;
54845;SDS011;53889;50.084;8.646;2022-09-01T10:33:57;3.83;;;1.00;;
54845;SDS011;53889;50.084;8.646;2022-09-01T10:36:27;3.78;;;1.70;;
54845;SDS011;53889;50.084;8.646;2022-09-01T10:38:55;3.22;;;1.10;;
54845;SDS011;53889;50.084;8.646;2022-09-01T10:44:32;2.55;;;1.40;;
54845;SDS011;53889;50.084;8.646;2022-09-01T10:47:00;2.35;;;1.27;;
54845;SDS011;53889;50.084;8.646;2022-09-01T10:55:20;1.37;;;0.80;;
54845;SDS011;53889;50.084;8.646;2022-09-01T10:57:50;1.20;;;0.75;;
54845;SDS011;53889;50.084;8.646;2022-09-01T11:06:31;1.83;;;0.90;;
54845;SDS011;53889;50.084;8.646;2022-09-01T11:09:16;2.90;;;1.00;;
54845;SDS011;53889;50.084;8.646;2022-09-01T11:11:48;2.22;;;0.90;;
54845;SDS011;53889;50.084;8.646;2022-09-01T11:14:27;3.63;;;1.00;;
54845;SDS011;53889;50.084;8.646;2022-09-01T11:17:13;1.73;;;0.90;;
54845;SDS011;53889;50.084;8.646;2022-09-01T11:19:43;3.17;;;1.05;;
54845;SDS011;53889;50.084;8.646;2022-09-01T11:22:21;1.27;;;0.90;;
54845;SDS011;53889;50.084;8.646;2022-09-01T11:25:07;2.13;;;0.95;;
54845;SDS011;53889;50.084;8.646;2022-09-01T11:27:56;1.90;;;0.95;;
54845;SDS011;53889;50.084;8.646;2022-09-01T11:30:33;2.30;;;0.98;;
54845;SDS011;53889;50.084;8.646;2022-09-01T11:33:10;5.65;;;1.00;;
54845;SDS011;53889;50.084;8.646;2022-09-01T11:35:46;2.65;;;0.88;;
54845;SDS011;53889;50.084;8.646;2022-09-01T11:38:22;3.72;;;1.10;;
54845;SDS011;53889;50.084;8.646;2022-09-01T11:40:54;2.92;;;0.90;;
54845;SDS011;53889;50.084;8.646;2022-09-01T11:43:22;2.60;;;0.95;;
54845;SDS011;53889;50.084;8.646;2022-09-01T11:45:54;2.72;;;1.00;;
54845;SDS011;53889;50.084;8.646;2022-09-01T11:48:27;2.85;;;1.00;;
54845;SDS011;53889;50.084;8.646;2022-09-01T11:50:56;1.77;;;0.90;;
54845;SDS011;53889;50.084;8.646;2022-09-01T11:53:24;1.25;;;0.90;;
54845;SDS011;53889;50.084;8.646;2022-09-01T11:55:52;2.15;;;1.00;;
54845;SDS011;53889;50.084;8.646;2022-09-01T11:58:29;2.15;;;1.05;;
54845;SDS011;53889;50.084;8.646;2022-09-01T12:01:10;4.00;;;1.27;;
54845;SDS011;53889;50.084;8.646;2022-09-01T12:03:38;3.00;;;1.10;;
54845;SDS011;53889;50.084;8.646;2022-09-01T12:06:06;1.95;;;1.10;;
54845;SDS011;53889;50.084;8.646;2022-09-01T12:08:35;1.98;;;1.10;;
54845;SDS011;53889;50.084;8.646;2022-09-01T12:11:05;2.10;;;1.15;;
54845;SDS011;53889;50.084;8.646;2022-09-01T12:13:34;1.88;;;1.05;;
54845;SDS011;53889;50.084;8.646;2022-09-01T12:16:03;3.10;;;1.10;;
54845;SDS011;53889;50.084;8.646;2022-09-01T12:18:33;4.85;;;1.25;;
54845;SDS011;53889;50.084;8.646;2022-09-01T12:21:04;2.10;;;1.10;;
54845;SDS011;53889;50.084;8.646;2022-09-01T12:23:34;1.40;;;1.00;;
54845;SDS011;53889;50.084;8.646;2022-09-01T12:26:07;3.33;;;1.15;;
54845;SDS011;53889;50.084;8.646;2022-09-01T12:28:37;3.20;;;1.20;;
54845;SDS011;53889;50.084;8.646;2022-09-01T12:31:07;3.15;;;1.20;;
54845;SDS011;53889;50.084;8.646;2022-09-01T12:33:38;1.83;;;1.20;;
54845;SDS011;53889;50.084;8.646;2022-09-01T12:36:20;2.13;;;1.10;;
54845;SDS011;53889;50.084;8.646;2022-09-01T12:38:50;1.70;;;1.10;;
54845;SDS011;53889;50.084;8.646;2022-09-01T12:41:35;4.88;;;1.15;;
54845;SDS011;53889;50.084;8.646;2022-09-01T12:46:54;3.60;;;1.02;;
54845;SDS011;53889;50.084;8.646;2022-09-01T12:49:22;1.63;;;1.05;;
54845;SDS011;53889;50.084;8.646;2022-09-01T12:52:04;1.58;;;1.10;;
54845;SDS011;53889;50.084;8.646;2022-09-01T12:54:35;2.75;;;1.60;;
54845;SDS011;53889;50.084;8.646;2022-09-01T12:57:03;2.80;;;1.35;;
54845;SDS011;53889;50.084;8.646;2022-09-01T12:59:31;3.97;;;1.23;;
54845;SDS011;53889;50.084;8.646;2022-09-01T13:04:52;2.13;;;1.08;;
54845;SDS011;53889;50.084;8.646;2022-09-01T13:07:19;2.78;;;1.13;;
54845;SDS011;53889;50.084;8.646;2022-09-01T13:09:46;1.83;;;1.13;;
54845;SDS011;53889;50.084;8.646;2022-09-01T13:12:18;3.45;;;1.15;;
54845;SDS011;53889;50.084;8.646;2022-09-01T13:14:46;1.83;;;1.17;;
54845;SDS011;53889;50.084;8.646;2022-09-01T13:17:13;3.05;;;1.40;;
54845;SDS011;53889;50.084;8.646;2022-09-01T13:19:40;3.97;;;1.35;;
54845;SDS011;53889;50.084;8.646;2022-09-01T13:22:07;2.97;;;1.40;;
54845;SDS011;53889;50.084;8.646;2022-09-01T13:24:33;3.33;;;1.30;;
54845;SDS011;53889;50.084;8.646;2022-09-01T13:27:00;2.20;;;1.33;;
54845;SDS011;53889;50.084;8.646;2022-09-01T13:29:28;2.50;;;1.50;;
54845;SDS011;53889;50.084;8.646;2022-09-01T13:31:55;3.50;;;1.33;;
54845;SDS011;53889;50.084;8.646;2022-09-01T13:34:22;3.08;;;1.20;;
54845;SDS011;53889;50.084;8.646;2022-09-01T13:36:49;2.28;;;1.30;;
54845;SDS011;53889;50.084;8.646;2022-09-01T13:39:15;3.22;;;1.10;;
54845;SDS011;53889;50.084;8.646;2022-09-01T13:41:42;3.65;;;1.27;;
54845;SDS011;53889;50.084;8.646;2022-09-01T13:44:09;2.35;;;1.20;;
54845;SDS011;53889;50.084;8.646;2022-09-01T13:46:38;2.67;;;1.35;;
54845;SDS011;53889;50.084;8.646;2022-09-01T13:49:05;3.47;;;1.30;;
54845;SDS011;53889;50.084;8.646;2022-09-01T13:51:33;2.10;;;1.13;;
54845;SDS011;53889;50.084;8.646;2022-09-01T13:54:01;3.47;;;1.20;;
54845;SDS011;53889;50.084;8.646;2022-09-01T13:56:28;3.50;;;1.40;;
54845;SDS011;53889;50.084;8.646;2022-09-01T13:58:55;1.70;;;1.25;;
54845;SDS011;53889;50.084;8.646;2022-09-01T14:01:22;3.58;;;1.20;;
54845;SDS011;53889;50.084;8.646;2022-09-01T14:03:50;1.73;;;1.20;;
54845;SDS011;53889;50.084;8.646;2022-09-01T14:06:17;1.90;;;1.10;;
54845;SDS011;53889;50.084;8.646;2022-09-01T14:08:45;2.63;;;1.20;;
54845;SDS011;53889;50.084;8.646;2022-09-01T14:11:14;3.17;;;1.30;;
54845;SDS011;53889;50.084;8.646;2022-09-01T14:13:44;5.05;;;1.40;;
54845;SDS011;53889;50.084;8.646;2022-09-01T14:16:11;2.40;;;1.30;;
54845;SDS011;53889;50.084;8.646;2022-09-01T14:18:39;3.35;;;1.30;;
54845;SDS011;53889;50.084;8.646;2022-09-01T14:21:10;2.70;;;1.42;;
54845;SDS011;53889;50.084;8.646;2022-09-01T14:23:38;3.88;;;1.30;;
54845;SDS011;53889;50.084;8.646;2022-09-01T14:26:07;3.03;;;1.25;;
54845;SDS011;53889;50.084;8.646;2022-09-01T14:28:35;2.17;;;1.20;;
54845;SDS011;53889;50.084;8.646;2022-09-01T14:31:06;2.22;;;1.20;;
54845;SDS011;53889;50.084;8.646;2022-09-01T14:33:34;2.53;;;1.60;;
54845;SDS011;53889;50.084;8.646;2022-09-01T14:36:01;3.65;;;1.20;;
54845;SDS011;53889;50.084;8.646;2022-09-01T14:38:30;2.50;;;1.20;;
54845;SDS011;53889;50.084;8.646;2022-09-01T14:40:56;1.80;;;1.20;;
54845;SDS011;53889;50.084;8.646;2022-09-01T14:43:23;3.03;;;1.70;;
54845;SDS011;53889;50.084;8.646;2022-09-01T14:46:00;1.60;;;1.10;;
54845;SDS011;53889;50.084;8.646;2022-09-01T14:48:30;2.08;;;1.30;;
54845;SDS011;53889;50.084;8.646;2022-09-01T14:50:59;2.30;;;1.17;;
54845;SDS011;53889;50.084;8.646;2022-09-01T14:53:26;2.08;;;1.20;;
54845;SDS011;53889;50.084;8.646;2022-09-01T14:55:55;1.90;;;1.20;;
54845;SDS011;53889;50.084;8.646;2022-09-01T14:58:22;3.25;;;1.48;;
54845;SDS011;53889;50.084;8.646;2022-09-01T15:00:50;2.97;;;1.27;;
54845;SDS011;53889;50.084;8.646;2022-09-01T15:03:19;2.88;;;1.20;;
54845;SDS011;53889;50.084;8.646;2022-09-01T15:05:45;2.42;;;1.17;;
54845;SDS011;53889;50.084;8.646;2022-09-01T15:08:12;1.98;;;1.27;;
54845;SDS011;53889;50.084;8.646;2022-09-01T15:10:40;3.58;;;1.33;;
54845;SDS011;53889;50.084;8.646;2022-09-01T15:13:08;3.03;;;1.20;;
54845;SDS011;53889;50.084;8.646;2022-09-01T15:15:36;2.25;;;1.10;;
54845;SDS011;53889;50.084;8.646;2022-09-01T15:18:03;2.75;;;1.38;;
54845;SDS011;53889;50.084;8.646;2022-09-01T15:20:30;1.88;;;1.10;;
54845;SDS011;53889;50.084;8.646;2022-09-01T15:23:15;3.35;;;1.30;;
54845;SDS011;53889;50.084;8.646;2022-09-01T15:25:44;2.00;;;1.20;;
54845;SDS011;53889;50.084;8.646;2022-09-01T15:28:14;2.63;;;1.35;;
54845;SDS011;53889;50.084;8.646;2022-09-01T15:30:41;2.65;;;1.50;;
54845;SDS011;53889;50.084;8.646;2022-09-01T15:33:09;2.75;;;1.30;;